Time;durP1;ratioP1;P1;durP2;ratioP2;P2;SDS_P1;SDS_P2;PMS_P1;PMS_P2;Temp;Humidity;BMP_temperature;BMP_pressure;BME280_temperature;BME280_humidity;BME280_pressure;Samples;Min_cycle;Max_cycle;Signal;HPM_P1;HPM_P2
2023/01/27 00:00:27;;;;;;;8.65;3.80;;;5.30;99.90;;;;;;5009681;28;20104;-72
2023/01/27 00:02:53;;;;;;;10.95;3.28;;;5.30;99.90;;;;;;5009250;28;20046;-70
2023/01/27 00:05:21;;;;;;;12.32;4.53;;;5.30;99.90;;;;;;5040243;28;20129;-72
2023/01/27 00:07:48;;;;;;;8.48;3.80;;;5.30;99.90;;;;;;5009358;28;20042;-71
2023/01/27 00:10:18;;;;;;;6.78;3.70;;;5.30;99.90;;;;;;5010040;28;20056;-72
2023/01/27 00:15:32;;;;;;;9.55;4.85;;;5.30;99.90;;;;;;5009090;28;20052;-71
2023/01/27 00:17:59;;;;;;;11.93;4.40;;;5.30;99.90;;;;;;5010064;28;20089;-72
2023/01/27 00:26:05;;;;;;;13.85;4.22;;;5.20;99.90;;;;;;5009323;28;20062;-72
2023/01/27 00:28:33;;;;;;;8.40;3.78;;;5.20;99.90;;;;;;5010182;28;20092;-71
2023/01/27 00:30:59;;;;;;;7.80;3.90;;;5.20;99.90;;;;;;5009819;28;20046;-71
2023/01/27 00:33:26;;;;;;;11.02;4.03;;;5.20;99.90;;;;;;5009710;28;20124;-70
2023/01/27 00:36:03;;;;;;;8.63;3.88;;;5.20;99.90;;;;;;5009713;28;20053;-72
2023/01/27 00:38:31;;;;;;;11.18;3.72;;;5.20;99.90;;;;;;5009796;28;20064;-69
2023/01/27 00:43:47;;;;;;;6.80;3.83;;;5.30;99.90;;;;;;5035578;28;20512;-72
2023/01/27 00:46:14;;;;;;;8.63;3.28;;;5.30;99.90;;;;;;5009470;28;20405;-71
2023/01/27 00:48:41;;;;;;;4.18;3.00;;;5.30;99.90;;;;;;5010407;28;20053;-72
2023/01/27 00:51:08;;;;;;;8.10;3.38;;;5.20;99.90;;;;;;5012098;28;20129;-72
2023/01/27 00:53:34;;;;;;;5.20;2.97;;;5.20;99.90;;;;;;5012040;28;20715;-72
2023/01/27 00:56:01;;;;;;;10.35;3.10;;;5.20;99.90;;;;;;5011814;28;20054;-72
2023/01/27 00:58:28;;;;;;;5.93;2.70;;;5.20;99.90;;;;;;5011534;28;20132;-71
2023/01/27 01:00:58;;;;;;;8.68;3.58;;;5.20;99.90;;;;;;5011964;28;20046;-71
2023/01/27 01:03:25;;;;;;;5.00;2.88;;;5.20;99.90;;;;;;5002511;28;20548;-71
2023/01/27 01:05:52;;;;;;;11.55;3.05;;;5.30;99.90;;;;;;5032010;28;20046;-71
2023/01/27 01:08:19;;;;;;;8.07;3.33;;;5.20;99.90;;;;;;5009186;28;20132;-71
2023/01/27 01:10:45;;;;;;;10.60;2.92;;;5.20;99.90;;;;;;5009317;28;20483;-72
2023/01/27 01:13:12;;;;;;;10.38;3.50;;;5.30;99.90;;;;;;5008654;28;20436;-72
2023/01/27 01:15:39;;;;;;;6.32;3.30;;;5.30;99.90;;;;;;5009553;28;20046;-72
2023/01/27 01:18:07;;;;;;;6.93;3.03;;;5.20;99.90;;;;;;5009049;28;20056;-72
2023/01/27 01:20:37;;;;;;;7.55;3.10;;;5.20;99.90;;;;;;5009328;28;20041;-72
2023/01/27 01:23:05;;;;;;;9.23;3.17;;;5.20;99.90;;;;;;5008935;28;20508;-72
2023/01/27 01:25:32;;;;;;;5.38;2.22;;;5.10;99.90;;;;;;5008803;28;20042;-71
2023/01/27 01:27:59;;;;;;;12.25;2.72;;;5.20;99.90;;;;;;5008173;28;20053;-71
2023/01/27 01:30:26;;;;;;;4.32;2.67;;;5.20;99.90;;;;;;5009377;28;20112;-71
2023/01/27 01:32:53;;;;;;;6.63;2.50;;;5.20;99.90;;;;;;5011836;28;20504;-71
2023/01/27 01:35:20;;;;;;;5.22;2.33;;;5.20;99.90;;;;;;5012524;28;20042;-71
2023/01/27 01:37:47;;;;;;;10.00;3.10;;;5.10;99.90;;;;;;4657600;28;10000506;-71
2023/01/27 01:40:14;;;;;;;3.83;2.58;;;5.10;99.90;;;;;;5037760;28;20045;-72
2023/01/27 01:42:57;;;;;;;5.55;2.10;;;5.00;99.90;;;;;;5011692;28;20056;-71
2023/01/27 01:45:35;;;;;;;5.10;2.38;;;5.10;99.90;;;;;;5010329;28;20046;-71
2023/01/27 01:48:07;;;;;;;5.88;2.50;;;5.10;99.90;;;;;;5008639;28;20104;-72
2023/01/27 01:50:34;;;;;;;10.90;2.85;;;5.10;99.90;;;;;;5040690;28;20049;-71
2023/01/27 01:53:01;;;;;;;6.88;2.75;;;5.20;99.90;;;;;;5008459;28;20129;-73
2023/01/27 01:55:27;;;;;;;9.43;4.43;;;5.10;99.90;;;;;;5007672;28;20068;-72
2023/01/27 01:57:54;;;;;;;8.82;3.00;;;5.10;99.90;;;;;;5007295;28;20089;-73
2023/01/27 02:00:21;;;;;;;8.18;2.40;;;5.00;99.90;;;;;;5040387;28;20052;-72
2023/01/27 02:02:47;;;;;;;8.80;2.53;;;5.10;99.90;;;;;;5008935;28;20595;-72
2023/01/27 02:05:25;;;;;;;11.68;2.78;;;5.10;99.90;;;;;;5039704;28;20197;-72
2023/01/27 02:07:57;;;;;;;4.78;2.70;;;5.10;99.90;;;;;;5040215;28;20049;-71
2023/01/27 02:10:24;;;;;;;7.47;2.65;;;5.10;99.90;;;;;;5008778;28;20056;-72
2023/01/27 02:12:51;;;;;;;9.25;2.88;;;5.00;99.90;;;;;;5008265;28;20069;-70
2023/01/27 02:15:20;;;;;;;7.35;3.15;;;5.00;99.90;;;;;;5008582;28;20045;-72
2023/01/27 02:17:47;;;;;;;9.70;3.20;;;5.00;99.90;;;;;;5007363;28;20132;-72
2023/01/27 02:20:17;;;;;;;6.32;2.97;;;5.00;99.90;;;;;;5007034;28;20108;-72
2023/01/27 02:23:03;;;;;;;6.82;2.97;;;5.00;99.90;;;;;;5040186;28;20054;-72
2023/01/27 02:25:33;;;;;;;7.40;3.10;;;5.00;99.90;;;;;;5007694;28;20060;-72
2023/01/27 02:28:04;;;;;;;9.68;4.32;;;5.00;99.90;;;;;;5000484;28;20070;-72
2023/01/27 02:30:31;;;;;;;8.88;3.25;;;5.00;99.90;;;;;;5008652;28;20061;-72
2023/01/27 02:32:58;;;;;;;4.90;2.80;;;5.00;99.90;;;;;;5008079;28;20054;-72
2023/01/27 02:35:33;;;;;;;7.72;2.72;;;5.10;99.90;;;;;;5007897;28;20084;-71
2023/01/27 02:38:00;;;;;;;17.70;4.88;;;5.00;99.90;;;;;;5008228;28;20516;-72
2023/01/27 02:40:27;;;;;;;12.70;3.40;;;5.00;99.90;;;;;;5008068;28;20041;-72
2023/01/27 02:42:57;;;;;;;9.50;4.15;;;5.00;99.90;;;;;;5039570;28;20085;-72
2023/01/27 02:45:24;;;;;;;5.85;2.95;;;5.00;99.90;;;;;;5022268;28;20041;-72
2023/01/27 02:47:51;;;;;;;4.80;2.80;;;5.10;99.90;;;;;;5007954;28;20046;-72
2023/01/27 02:50:17;;;;;;;10.18;3.38;;;5.00;99.90;;;;;;5008026;28;20046;-72
2023/01/27 02:52:44;;;;;;;7.15;2.85;;;5.10;99.90;;;;;;5039462;28;20054;-72
2023/01/27 02:55:11;;;;;;;5.57;3.67;;;5.10;99.90;;;;;;5007309;28;20553;-71
2023/01/27 02:57:38;;;;;;;5.93;2.97;;;5.10;99.90;;;;;;5007728;28;20050;-71
2023/01/27 03:00:07;;;;;;;8.57;3.28;;;5.10;99.90;;;;;;5007881;28;20058;-71
2023/01/27 03:02:34;;;;;;;6.43;3.53;;;5.10;99.90;;;;;;5038915;28;20060;-72
2023/01/27 03:05:01;;;;;;;6.68;3.53;;;5.10;99.90;;;;;;5015668;28;20405;-72
2023/01/27 03:07:27;;;;;;;9.52;3.88;;;5.00;99.90;;;;;;5010911;28;20049;-71
2023/01/27 03:09:54;;;;;;;8.10;3.50;;;5.00;99.90;;;;;;5011269;28;20171;-71
2023/01/27 03:12:21;;;;;;;4.00;2.85;;;4.90;99.90;;;;;;5011245;28;20140;-71
2023/01/27 03:20:21;;;;;;;7.38;3.30;;;5.00;99.90;;;;;;5037860;28;20054;-71
2023/01/27 03:22:48;;;;;;;7.38;3.00;;;5.00;99.90;;;;;;5011818;28;20054;-72
2023/01/27 03:25:15;;;;;;;15.38;4.93;;;5.00;99.90;;;;;;5011221;28;20052;-71
2023/01/27 03:27:42;;;;;;;5.35;3.22;;;5.00;99.90;;;;;;5010796;28;20150;-71
2023/01/27 03:30:09;;;;;;;11.57;3.17;;;4.90;99.90;;;;;;5011041;28;20061;-71
2023/01/27 03:32:36;;;;;;;8.88;3.75;;;4.90;99.90;;;;;;5010866;28;20062;-68
2023/01/27 03:35:03;;;;;;;12.45;3.72;;;4.90;99.90;;;;;;5011532;28;20049;-71
2023/01/27 03:48:33;;;;;;;8.70;3.80;;;4.80;99.90;;;;;;5010538;28;20497;-70
2023/01/27 03:51:01;;;;;;;6.10;3.08;;;4.80;99.90;;;;;;5042278;28;20137;-71
2023/01/27 03:53:28;;;;;;;10.07;3.28;;;4.90;99.90;;;;;;5010673;28;20100;-71
2023/01/27 03:55:55;;;;;;;6.82;3.25;;;4.80;99.90;;;;;;5010569;28;20045;-71
2023/01/27 03:58:29;;;;;;;5.15;3.70;;;4.80;99.90;;;;;;5010090;28;20093;-72
2023/01/27 04:00:57;;;;;;;8.10;4.50;;;4.80;99.90;;;;;;5009694;28;20053;-71
2023/01/27 04:09:05;;;;;;;5.10;3.80;;;4.80;99.90;;;;;;5010757;28;20121;-72
2023/01/27 04:14:17;;;;;;;7.03;4.13;;;4.70;99.90;;;;;;5006339;28;20223;-71
2023/01/27 04:16:44;;;;;;;7.25;4.30;;;4.80;99.90;;;;;;5009958;28;20050;-70
2023/01/27 04:19:11;;;;;;;12.57;4.57;;;4.70;99.90;;;;;;5009876;28;20057;-71
2023/01/27 04:21:37;;;;;;;6.80;4.10;;;4.70;99.90;;;;;;5011059;28;20045;-71
2023/01/27 04:24:07;;;;;;;5.57;4.20;;;4.60;99.90;;;;;;5010494;28;20054;-70
2023/01/27 04:26:34;;;;;;;7.53;5.32;;;4.60;99.90;;;;;;5010684;28;20486;-70
2023/01/27 04:29:01;;;;;;;7.45;4.55;;;4.60;99.90;;;;;;5010298;28;20053;-70
2023/01/27 04:31:28;;;;;;;11.73;4.68;;;4.60;99.90;;;;;;5010362;28;20138;-71
2023/01/27 04:33:55;;;;;;;8.23;4.50;;;4.60;99.90;;;;;;5010130;28;20056;-70
2023/01/27 04:36:21;;;;;;;8.93;5.15;;;4.60;99.90;;;;;;5010056;28;20099;-69
2023/01/27 04:38:48;;;;;;;10.95;4.60;;;4.60;99.90;;;;;;5009966;28;20509;-71
2023/01/27 04:41:15;;;;;;;9.52;5.00;;;4.60;99.90;;;;;;5010267;28;20050;-70
2023/01/27 04:43:42;;;;;;;13.93;5.07;;;4.60;99.90;;;;;;5009742;28;20137;-70
2023/01/27 04:46:08;;;;;;;9.98;6.05;;;4.60;99.90;;;;;;5009829;28;20041;-70
2023/01/27 04:48:35;;;;;;;8.77;5.15;;;4.70;99.90;;;;;;5040880;28;20093;-70
2023/01/27 04:51:02;;;;;;;8.57;4.85;;;4.70;99.90;;;;;;5009872;28;20046;-70
2023/01/27 04:53:29;;;;;;;9.68;4.75;;;4.70;99.90;;;;;;5009672;28;20408;-69
2023/01/27 04:56:01;;;;;;;9.15;5.45;;;4.70;99.90;;;;;;5009683;28;20084;-70
2023/01/27 04:58:27;;;;;;;10.50;5.63;;;4.70;99.90;;;;;;5009272;28;20138;-70
2023/01/27 05:00:54;;;;;;;15.52;5.72;;;4.70;99.90;;;;;;5009436;28;20054;-69
2023/01/27 05:03:21;;;;;;;18.00;8.63;;;4.70;99.90;;;;;;5009542;28;20060;-70
2023/01/27 05:05:48;;;;;;;8.32;4.85;;;4.70;99.90;;;;;;5009193;28;20042;-70
2023/01/27 05:08:14;;;;;;;8.50;5.03;;;4.70;99.90;;;;;;5009311;28;20420;-69
2023/01/27 05:10:44;;;;;;;7.07;4.68;;;4.60;99.90;;;;;;5008208;28;20062;-70
2023/01/27 05:13:11;;;;;;;7.90;4.57;;;4.60;99.90;;;;;;5009251;28;20053;-70
2023/01/27 05:15:38;;;;;;;6.32;4.75;;;4.70;99.90;;;;;;5008313;28;20052;-70
2023/01/27 05:18:04;;;;;;;7.53;4.68;;;4.70;99.90;;;;;;5008210;28;20558;-70
2023/01/27 05:20:31;;;;;;;9.32;4.35;;;4.60;99.90;;;;;;5008532;28;20446;-70
2023/01/27 05:25:44;;;;;;;7.03;3.97;;;4.60;99.90;;;;;;5008602;28;20054;-70
2023/01/27 05:28:11;;;;;;;9.63;4.60;;;4.70;99.90;;;;;;5008932;28;20153;-71
2023/01/27 05:30:38;;;;;;;11.35;4.45;;;4.70;99.90;;;;;;5008997;28;20056;-70
2023/01/27 05:33:05;;;;;;;7.38;4.30;;;4.70;99.90;;;;;;5008846;28;20484;-70
2023/01/27 05:35:32;;;;;;;5.85;4.22;;;4.70;99.90;;;;;;5008571;28;20038;-69
2023/01/27 05:37:59;;;;;;;6.72;3.85;;;4.60;99.90;;;;;;5009038;28;20089;-70
2023/01/27 05:40:26;;;;;;;7.30;4.30;;;4.60;99.90;;;;;;5008997;28;20042;-70
2023/01/27 05:42:53;;;;;;;6.60;3.60;;;4.60;99.90;;;;;;5008584;28;20063;-70
2023/01/27 05:45:19;;;;;;;10.02;3.78;;;4.60;99.90;;;;;;5008937;28;20046;-71
2023/01/27 05:47:50;;;;;;;5.53;3.75;;;4.60;99.90;;;;;;5009095;28;20046;-71
2023/01/27 05:50:17;;;;;;;4.80;3.88;;;4.60;99.90;;;;;;5016080;28;20062;-70
2023/01/27 05:52:44;;;;;;;5.25;3.72;;;4.40;99.90;;;;;;5008957;28;20077;-70
2023/01/27 05:55:11;;;;;;;9.32;3.95;;;4.60;99.90;;;;;;5008571;28;20568;-71
2023/01/27 05:57:38;;;;;;;7.82;4.25;;;4.60;99.90;;;;;;5008480;28;20049;-70
2023/01/27 06:00:05;;;;;;;7.43;3.30;;;4.60;99.90;;;;;;5008799;28;20057;-70
2023/01/27 06:02:32;;;;;;;11.93;4.22;;;4.60;99.90;;;;;;5008430;28;20072;-71
2023/01/27 06:04:59;;;;;;;8.48;3.72;;;4.70;99.90;;;;;;5007383;28;20096;-71
2023/01/27 06:07:26;;;;;;;6.53;3.20;;;4.70;99.90;;;;;;5008404;28;20045;-71
2023/01/27 06:09:52;;;;;;;6.20;3.53;;;4.70;99.90;;;;;;5008786;28;20071;-71
2023/01/27 06:12:19;;;;;;;9.90;3.63;;;4.70;99.90;;;;;;5004340;28;20115;-71
2023/01/27 06:14:46;;;;;;;5.05;3.28;;;4.70;99.90;;;;;;4991281;28;20141;-71
2023/01/27 06:17:13;;;;;;;7.68;3.60;;;4.70;99.90;;;;;;4992758;28;20050;-70
2023/01/27 06:19:40;;;;;;;12.57;4.65;;;4.70;99.90;;;;;;5004003;28;20050;-70
2023/01/27 06:22:06;;;;;;;5.05;3.35;;;4.80;99.90;;;;;;5008501;28;20048;-71
2023/01/27 06:24:33;;;;;;;8.13;3.50;;;4.80;99.90;;;;;;5008637;28;20046;-72
2023/01/27 06:27:00;;;;;;;4.43;3.17;;;4.80;99.90;;;;;;5008181;28;20042;-70
2023/01/27 06:29:27;;;;;;;6.07;3.85;;;4.80;99.90;;;;;;5008374;28;20049;-70
2023/01/27 06:31:53;;;;;;;7.93;4.03;;;4.80;99.90;;;;;;5008634;28;20133;-72
2023/01/27 06:34:20;;;;;;;7.43;3.45;;;4.80;99.90;;;;;;5039636;28;20698;-72
2023/01/27 06:36:47;;;;;;;6.50;3.53;;;4.80;99.90;;;;;;5008371;28;20069;-71
2023/01/27 06:39:15;;;;;;;15.13;3.03;;;4.70;99.90;;;;;;5008262;28;20549;-70
2023/01/27 06:41:42;;;;;;;7.45;3.30;;;4.80;99.90;;;;;;5010639;28;20046;-71
2023/01/27 06:44:09;;;;;;;6.55;3.05;;;4.80;99.90;;;;;;5009489;28;20046;-71
2023/01/27 06:46:35;;;;;;;12.27;3.38;;;4.80;99.90;;;;;;5026717;28;20132;-70
2023/01/27 06:49:03;;;;;;;6.97;3.08;;;4.80;99.90;;;;;;5026106;28;20052;-71
2023/01/27 06:51:29;;;;;;;6.63;3.40;;;4.90;99.90;;;;;;5011766;28;20383;-70
2023/01/27 06:53:56;;;;;;;7.30;2.75;;;4.80;99.90;;;;;;5011390;28;20420;-71
2023/01/27 06:56:23;;;;;;;9.30;2.67;;;4.90;99.90;;;;;;5011759;28;20041;-71
2023/01/27 06:58:50;;;;;;;10.73;2.53;;;4.90;99.90;;;;;;5011633;28;20489;-71
2023/01/27 07:01:17;;;;;;;7.82;3.47;;;4.80;99.90;;;;;;5043158;28;20125;-70
2023/01/27 07:03:43;;;;;;;7.95;2.42;;;4.90;99.90;;;;;;5011310;28;20053;-72
2023/01/27 07:06:11;;;;;;;8.10;2.33;;;5.20;99.90;;;;;;5011898;28;20080;-72
2023/01/27 07:08:37;;;;;;;7.75;2.58;;;4.90;99.90;;;;;;5011425;28;20042;-73
2023/01/27 07:11:04;;;;;;;9.40;2.33;;;4.90;99.90;;;;;;5011575;28;20050;-72
2023/01/27 07:13:31;;;;;;;8.73;2.92;;;4.90;99.90;;;;;;5042443;28;20050;-72
2023/01/27 07:15:59;;;;;;;12.13;2.80;;;4.90;99.90;;;;;;5011742;28;20140;-71
2023/01/27 07:18:26;;;;;;;13.15;2.63;;;4.90;99.90;;;;;;5011098;28;20444;-72
2023/01/27 07:20:52;;;;;;;9.73;2.72;;;4.90;99.90;;;;;;5010482;28;20056;-72
2023/01/27 07:23:19;;;;;;;7.38;2.00;;;4.90;99.90;;;;;;5010705;28;20564;-71
2023/01/27 07:25:46;;;;;;;9.40;2.90;;;4.80;99.90;;;;;;5042469;28;20133;-71
2023/01/27 07:28:13;;;;;;;6.00;2.45;;;4.80;99.90;;;;;;5009878;28;20046;-71
2023/01/27 07:30:40;;;;;;;6.40;2.35;;;4.80;99.90;;;;;;5011169;28;20054;-70
2023/01/27 07:33:10;;;;;;;17.48;3.25;;;4.80;99.90;;;;;;5010543;28;20096;-73
2023/01/27 07:35:37;;;;;;;7.43;2.10;;;4.90;99.90;;;;;;5010727;28;20046;-72
2023/01/27 07:38:05;;;;;;;9.40;2.97;;;4.90;99.90;;;;;;5010359;28;20134;-72
2023/01/27 07:40:31;;;;;;;12.57;2.95;;;4.80;99.90;;;;;;5010501;28;20053;-73
2023/01/27 07:42:59;;;;;;;7.85;2.30;;;4.90;99.90;;;;;;5041120;28;20052;-77
2023/01/27 07:45:26;;;;;;;3.78;1.67;;;4.90;99.90;;;;;;5008623;28;20052;-75
2023/01/27 07:47:52;;;;;;;7.38;2.70;;;4.90;99.90;;;;;;5040425;28;20092;-69
2023/01/27 07:50:20;;;;;;;8.48;2.03;;;5.10;99.90;;;;;;5008218;28;20057;-73
2023/01/27 07:52:47;;;;;;;9.75;2.10;;;4.90;99.90;;;;;;5008825;28;20060;-73
2023/01/27 07:55:14;;;;;;;7.03;2.15;;;4.90;99.90;;;;;;5007798;28;20057;-74
2023/01/27 07:57:41;;;;;;;16.40;2.80;;;4.90;99.90;;;;;;5008055;28;20054;-76
2023/01/27 08:00:08;;;;;;;10.65;2.38;;;4.90;99.90;;;;;;5008527;28;20124;-75
2023/01/27 08:02:35;;;;;;;10.23;2.58;;;5.00;99.90;;;;;;5008859;28;20053;-74
2023/01/27 08:05:02;;;;;;;7.28;1.85;;;5.00;99.90;;;;;;5007313;28;20046;-75
2023/01/27 08:07:29;;;;;;;11.18;2.45;;;5.00;99.90;;;;;;4997425;28;20077;-75
2023/01/27 08:09:56;;;;;;;6.38;1.90;;;5.00;99.90;;;;;;5008948;28;20045;-74
2023/01/27 08:12:23;;;;;;;7.82;2.65;;;5.00;99.90;;;;;;5010180;28;20064;-73
2023/01/27 08:14:49;;;;;;;13.27;2.80;;;5.10;99.90;;;;;;5041890;28;20056;-74
2023/01/27 08:17:16;;;;;;;10.20;1.80;;;5.00;99.90;;;;;;5009737;28;20046;-74
2023/01/27 08:19:43;;;;;;;9.88;2.08;;;5.00;99.90;;;;;;5009440;28;20054;-74
2023/01/27 08:22:10;;;;;;;20.05;2.15;;;5.00;99.90;;;;;;5009305;28;20515;-74
2023/01/27 08:24:36;;;;;;;9.52;2.15;;;5.00;99.90;;;;;;5009973;28;20064;-75
2023/01/27 08:27:03;;;;;;;8.52;2.13;;;5.00;99.90;;;;;;5009534;28;20042;-74
2023/01/27 08:29:33;;;;;;;13.48;2.13;;;5.10;99.90;;;;;;5004537;28;20141;-73
2023/01/27 08:32:00;;;;;;;15.23;2.80;;;5.10;99.90;;;;;;5003864;28;20060;-74
2023/01/27 08:34:27;;;;;;;11.85;2.13;;;5.20;99.90;;;;;;5009198;28;20129;-75
2023/01/27 08:36:53;;;;;;;13.35;5.65;;;5.20;99.90;;;;;;5008628;28;20050;-74
2023/01/27 08:39:20;;;;;;;6.93;1.88;;;5.30;99.90;;;;;;5009236;28;20195;-74
2023/01/27 08:41:47;;;;;;;4.78;1.85;;;5.20;99.90;;;;;;5011735;28;20493;-72
2023/01/27 08:44:14;;;;;;;8.75;2.05;;;5.20;99.90;;;;;;5009197;28;20049;-73
2023/01/27 08:46:40;;;;;;;17.73;2.97;;;5.20;99.90;;;;;;5009326;28;20489;-73
2023/01/27 08:49:07;;;;;;;11.82;2.30;;;5.20;99.90;;;;;;5009010;28;20065;-73
2023/01/27 08:51:34;;;;;;;11.18;2.70;;;5.10;99.90;;;;;;5009077;28;20045;-73
2023/01/27 08:54:01;;;;;;;8.23;1.92;;;5.10;99.90;;;;;;5009124;28;20050;-73
2023/01/27 08:56:29;;;;;;;11.80;2.72;;;5.10;99.90;;;;;;5008971;28;20181;-72
2023/01/27 08:58:56;;;;;;;11.45;2.40;;;5.10;99.90;;;;;;5008885;28;20053;-71
2023/01/27 09:01:23;;;;;;;7.63;2.05;;;5.10;99.90;;;;;;5009180;28;20145;-73
2023/01/27 09:03:50;;;;;;;7.70;2.28;;;5.20;99.90;;;;;;5008915;28;20042;-72
2023/01/27 09:06:17;;;;;;;12.30;2.30;;;5.20;99.90;;;;;;5009661;28;20062;-73
2023/01/27 09:08:44;;;;;;;13.57;2.50;;;5.20;99.90;;;;;;5008934;28;20416;-73
2023/01/27 09:11:12;;;;;;;16.20;2.97;;;5.30;99.90;;;;;;5010901;28;20053;-73
2023/01/27 09:13:39;;;;;;;22.85;3.83;;;5.30;99.90;;;;;;5011382;28;20070;-75
2023/01/27 09:16:06;;;;;;;12.70;2.25;;;5.30;99.90;;;;;;4992488;28;20051;-72
2023/01/27 09:18:33;;;;;;;11.68;2.20;;;5.40;99.90;;;;;;5004184;28;20107;-72
2023/01/27 09:21:06;;;;;;;12.05;2.40;;;5.40;99.90;;;;;;5012085;28;20060;-73
2023/01/27 09:23:32;;;;;;;7.93;2.40;;;5.50;99.90;;;;;;5008700;28;20477;-73
2023/01/27 09:25:59;;;;;;;16.02;3.30;;;5.50;99.90;;;;;;5009022;28;20073;-73
2023/01/27 09:28:26;;;;;;;17.65;2.42;;;5.50;99.90;;;;;;5008605;28;20106;-72
2023/01/27 09:30:56;;;;;;;8.65;2.55;;;5.60;99.90;;;;;;5008672;28;20489;-73
2023/01/27 09:33:24;;;;;;;11.73;2.88;;;5.70;99.90;;;;;;5007744;28;20512;-71
2023/01/27 09:36:14;;;;;;;11.07;2.65;;;5.70;99.90;;;;;;5008333;28;20056;-72
2023/01/27 09:38:50;;;;;;;8.00;1.80;;;5.80;99.90;;;;;;5007895;28;20438;-72
2023/01/27 09:41:21;;;;;;;15.02;2.90;;;5.80;99.90;;;;;;5038554;28;20050;-74
2023/01/27 09:44:01;;;;;;;10.43;2.25;;;5.80;99.90;;;;;;5008042;28;20485;-73
2023/01/27 09:47:02;;;;;;;13.15;2.47;;;5.90;99.90;;;;;;5039100;28;20062;-73
2023/01/27 09:49:54;;;;;;;10.63;2.58;;;6.00;99.90;;;;;;5008730;28;20085;-70
2023/01/27 09:53:05;;;;;;;15.70;3.47;;;6.00;99.90;;;;;;5017692;28;20090;-72
2023/01/27 09:56:02;;;;;;;12.05;2.78;;;6.00;99.90;;;;;;4988232;28;20050;-71
2023/01/27 09:58:37;;;;;;;11.65;2.20;;;6.00;99.90;;;;;;4988490;28;20057;-72
2023/01/27 10:01:17;;;;;;;10.27;2.45;;;6.00;99.90;;;;;;5005575;28;20068;-72
2023/01/27 10:03:49;;;;;;;14.15;3.25;;;6.00;99.90;;;;;;5038813;28;20042;-72
2023/01/27 10:06:38;;;;;;;13.27;3.17;;;6.10;99.90;;;;;;5007841;28;20527;-71
2023/01/27 10:09:43;;;;;;;12.35;2.72;;;6.10;99.90;;;;;;5008297;28;20237;-71
2023/01/27 10:12:14;;;;;;;;;;;6.10;99.90;;;;;;4990329;28;20051;-72
2023/01/27 10:14:52;;;;;;;10.43;3.08;;;6.10;99.90;;;;;;4995699;28;19922;-69
2023/01/27 10:17:24;;;;;;;16.88;3.30;;;6.20;99.90;;;;;;5010806;28;20573;-73
2023/01/27 10:20:09;;;;;;;11.35;3.03;;;6.20;99.90;;;;;;5010845;28;20053;-72
2023/01/27 10:22:58;;;;;;;9.45;3.20;;;6.20;99.90;;;;;;5011356;28;20148;-72
2023/01/27 10:25:44;;;;;;;14.25;3.97;;;6.30;99.90;;;;;;5041442;28;20037;-72
2023/01/27 10:28:12;;;;;;;12.15;2.67;;;6.30;99.90;;;;;;5011127;28;20462;-71
2023/01/27 10:33:53;;;;;;;8.75;2.22;;;6.40;99.90;;;;;;5154319;27;20412;-64
2023/01/27 10:36:27;;;;;;;15.98;2.83;;;6.50;99.90;;;;;;5122522;28;20056;-65
2023/01/27 10:39:21;;;;;;;17.98;2.95;;;6.50;99.90;;;;;;5096985;28;20048;-64
2023/01/27 10:41:51;;;;;;;;;;;6.50;99.90;;;;;;5106676;28;20076;-65
2023/01/27 10:44:41;;;;;;;13.07;2.63;;;6.50;99.90;;;;;;5135237;28;19934;-65
2023/01/27 10:47:30;;;;;;;12.65;2.50;;;6.60;99.90;;;;;;5104393;28;20051;-65
2023/01/27 10:50:00;;;;;;;8.38;2.17;;;6.60;99.90;;;;;;5115207;28;20047;-65
2023/01/27 10:52:45;;;;;;;8.05;2.88;;;6.60;99.90;;;;;;5099010;28;20047;-65
2023/01/27 10:55:28;;;;;;;6.75;1.75;;;6.70;99.90;;;;;;5099665;28;20051;-65
2023/01/27 10:58:02;;;;;;;15.38;2.80;;;6.80;99.90;;;;;;5114282;28;20406;-65
2023/01/27 11:00:42;;;;;;;9.77;1.92;;;6.80;99.90;;;;;;5134518;28;20105;-65
2023/01/27 11:03:41;;;;;;;14.40;2.70;;;6.80;99.90;;;;;;5089526;28;20063;-64
2023/01/27 11:06:14;;;;;;;8.63;2.03;;;6.90;99.90;;;;;;5081648;28;20453;-64
2023/01/27 11:08:44;;;;;;;11.80;1.90;;;6.90;99.90;;;;;;5096920;28;20058;-65
2023/01/27 11:14:27;;;;;;;14.18;2.00;;;7.00;99.90;;;;;;5107173;28;20493;-64
2023/01/27 11:17:14;;;;;;;10.15;2.03;;;7.00;99.90;;;;;;5108766;28;20046;-65
2023/01/27 11:20:13;;;;;;;9.60;2.72;;;7.10;99.90;;;;;;5116213;28;20125;-67
2023/01/27 11:22:47;;;;;;;10.57;2.55;;;7.20;99.90;;;;;;5117094;28;20065;-67
2023/01/27 11:25:27;;;;;;;8.02;1.90;;;7.20;99.90;;;;;;5079658;28;20103;-65
2023/01/27 11:28:45;;;;;;;7.20;1.85;;;7.30;99.90;;;;;;5094819;28;20046;-65
2023/01/27 11:31:34;;;;;;;14.10;2.20;;;7.30;99.90;;;;;;5079949;28;20053;-65
2023/01/27 11:34:05;;;;;;;16.90;2.90;;;7.40;99.90;;;;;;5132878;28;20054;-64
2023/01/27 11:36:33;;;;;;;5.13;1.23;;;7.40;99.90;;;;;;5115657;28;20052;-66
2023/01/27 11:39:09;;;;;;;14.18;2.20;;;7.40;99.90;;;;;;5107758;28;20047;-66
2023/01/27 11:41:37;;;;;;;13.65;1.75;;;7.40;99.90;;;;;;5071151;28;20052;-66
2023/01/27 11:44:13;;;;;;;9.73;1.70;;;7.40;99.90;;;;;;5089453;28;20071;-66
2023/01/27 11:46:42;;;;;;;9.60;1.95;;;7.50;99.90;;;;;;5102047;28;20049;-66
2023/01/27 11:49:09;;;;;;;13.73;1.95;;;7.50;99.90;;;;;;5065976;28;20128;-65
2023/01/27 11:51:37;;;;;;;8.18;1.73;;;7.60;99.90;;;;;;5083302;28;20195;-67
2023/01/27 11:54:10;;;;;;;15.38;5.22;;;7.60;99.90;;;;;;5085018;28;20047;-65
2023/01/27 11:56:37;;;;;;;6.07;1.63;;;7.50;99.90;;;;;;5082640;28;20048;-64
2023/01/27 11:59:15;;;;;;;14.25;2.30;;;7.50;99.90;;;;;;5077615;28;20649;-64
2023/01/27 12:02:02;;;;;;;14.35;3.30;;;7.50;99.90;;;;;;5094675;28;20090;-64
2023/01/27 12:04:57;;;;;;;8.95;1.67;;;7.50;99.90;;;;;;5089596;28;20059;-65
2023/01/27 12:07:51;;;;;;;9.65;1.33;;;7.50;99.90;;;;;;5104857;28;20055;-65
2023/01/27 12:10:28;;;;;;;5.50;1.47;;;7.50;99.90;;;;;;5094415;28;20079;-65
2023/01/27 12:12:56;;;;;;;12.35;1.63;;;7.40;99.90;;;;;;5098087;28;20111;-65
2023/01/27 12:15:26;;;;;;;7.80;1.63;;;7.50;99.90;;;;;;5108746;28;20134;-64
2023/01/27 12:17:59;;;;;;;7.13;1.80;;;7.50;99.90;;;;;;5085413;28;20566;-64
2023/01/27 12:20:31;;;;;;;5.68;1.45;;;7.50;99.90;;;;;;5070791;28;20044;-65
2023/01/27 12:23:03;;;;;;;10.07;2.10;;;7.50;99.90;;;;;;5092876;28;20078;-65
2023/01/27 12:25:42;;;;;;;8.00;1.70;;;7.60;99.90;;;;;;5089426;28;20450;-65
2023/01/27 12:28:33;;;;;;;6.40;1.15;;;7.60;99.90;;;;;;5086047;28;20134;-64
2023/01/27 12:31:24;;;;;;;10.43;1.20;;;7.60;99.90;;;;;;5081081;28;20085;-66
2023/01/27 12:33:58;;;;;;;12.90;2.28;;;7.60;99.90;;;;;;5085973;28;20044;-65
2023/01/27 12:36:26;;;;;;;9.65;1.60;;;7.60;99.90;;;;;;5091718;28;20630;-65
2023/01/27 12:38:59;;;;;;;8.70;1.73;;;7.60;99.90;;;;;;5077816;28;20176;-66
2023/01/27 12:41:35;;;;;;;9.82;2.00;;;7.60;99.90;;;;;;5075452;28;20252;-65
2023/01/27 12:44:15;;;;;;;16.85;2.00;;;7.60;99.90;;;;;;5081696;28;20052;-65
2023/01/27 12:47:02;;;;;;;6.35;1.40;;;7.50;99.90;;;;;;5089493;28;20476;-65
2023/01/27 12:49:34;;;;;;;13.40;2.47;;;7.50;99.90;;;;;;5090937;28;20175;-65
2023/01/27 12:52:02;;;;;;;5.78;2.58;;;7.60;99.90;;;;;;5108342;28;20106;-65
2023/01/27 12:54:31;;;;;;;8.43;2.40;;;7.60;99.90;;;;;;5080481;28;20311;-65
2023/01/27 12:57:03;;;;;;;8.18;1.48;;;7.60;99.90;;;;;;5075299;28;20598;-66
2023/01/27 12:59:30;;;;;;;16.58;2.20;;;7.60;99.90;;;;;;5080755;28;20063;-65
2023/01/27 13:02:17;;;;;;;11.30;2.17;;;7.60;99.90;;;;;;5089345;28;20111;-65
2023/01/27 13:05:04;;;;;;;13.07;2.50;;;7.60;99.90;;;;;;5084008;28;20074;-64
2023/01/27 13:07:51;;;;;;;8.30;1.38;;;7.70;99.90;;;;;;5067127;28;20444;-64
2023/01/27 13:10:20;;;;;;;8.23;1.60;;;7.70;99.90;;;;;;5096820;28;20120;-65
2023/01/27 13:12:51;;;;;;;12.75;2.35;;;7.70;99.90;;;;;;5078327;28;20079;-65
2023/01/27 13:15:20;;;;;;;21.90;2.38;;;7.70;99.90;;;;;;5080460;28;20126;-65
2023/01/27 13:17:49;;;;;;;17.52;3.25;;;7.60;99.90;;;;;;5106251;28;20044;-65
2023/01/27 13:20:18;;;;;;;4.47;1.45;;;7.60;99.90;;;;;;5114699;28;20127;-65
2023/01/27 13:23:05;;;;;;;11.63;2.33;;;7.60;99.90;;;;;;5097525;28;20039;-65
2023/01/27 13:25:37;;;;;;;8.25;1.67;;;7.60;99.90;;;;;;5097728;28;20086;-64
2023/01/27 13:28:05;;;;;;;13.45;1.98;;;7.60;99.90;;;;;;5089932;28;20051;-65
2023/01/27 13:30:37;;;;;;;9.68;1.55;;;7.80;99.90;;;;;;5063935;28;20097;-64
2023/01/27 13:33:22;;;;;;;8.55;1.10;;;7.70;99.90;;;;;;5087754;28;20258;-65
2023/01/27 13:36:25;;;;;;;8.85;2.05;;;7.60;99.90;;;;;;5098482;28;20115;-65
2023/01/27 13:38:57;;;;;;;10.50;2.05;;;7.70;99.90;;;;;;5063594;28;20059;-65
2023/01/27 13:41:29;;;;;;;9.93;1.65;;;7.60;99.90;;;;;;5099336;28;20107;-65
2023/01/27 13:44:13;;;;;;;12.23;4.38;;;7.70;99.90;;;;;;5078198;28;20139;-65
2023/01/27 13:46:39;;;;;;;10.52;1.90;;;7.70;99.90;;;;;;5065393;28;20044;-65
2023/01/27 13:49:15;;;;;;;10.30;3.40;;;7.70;99.90;;;;;;5070149;28;20058;-64
2023/01/27 13:51:42;;;;;;;13.13;3.00;;;7.70;99.90;;;;;;5103533;28;20529;-65
2023/01/27 13:54:08;;;;;;;14.23;1.55;;;7.70;99.90;;;;;;5081975;28;20135;-66
2023/01/27 13:57:06;;;;;;;13.88;1.75;;;7.80;99.90;;;;;;5081710;28;20447;-65